Andiamo — WDE2131 — position and weather

sailwx.info

Track history (hours):
 
Tides and Currents Weather Stations Pressure Air Temp Water Temp Dewpoint Dewpoint Depression Visibility Wind Speed Wind Dir Waves Ship Positions

Andiamo

Owner: Briggs, Robert O, Newport Beach, CA. More information available from US FCC via Universal Licensing System.

Last reported at 2015-Aug-27 20:33 UTC. Time now 2015-Aug-27 20:42 UTC.
Position N 33°37' W 117°55'.

Length 22 m.

Type: Pleasure craft. MMSI: 367320870.

Date/timePositionNaut miles runAvg speedWind from/ knotsBaromVisibWave heightAir tempDewpointWater temp
2015-Aug-27 20:33N 33°37' W 117°55'0 0.0
2015-Aug-27 19:33N 33°37' W 117°55'0 0.0
2015-Aug-27 16:33N 33°37' W 117°55'0 0.0
2015-Aug-27 15:31N 33°37' W 117°55'0 0.0
2015-Aug-27 14:19N 33°37' W 117°55'0 0.0
2015-Aug-27 13:33N 33°37' W 117°55'0 0.0
2015-Aug-27 12:31N 33°37' W 117°55'0 0.0
2015-Aug-27 11:33N 33°37' W 117°55'0 0.0
2015-Aug-27 10:33N 33°37' W 117°55'0 0.0
2015-Aug-27 09:32N 33°37' W 117°55'0 0.0
2015-Aug-27 08:33N 33°37' W 117°55'0 0.0
2015-Aug-27 07:33N 33°37' W 117°55'0 0.0
2015-Aug-27 06:25N 33°37' W 117°55'0 0.0
2015-Aug-27 05:28N 33°37' W 117°55'0 0.0
2015-Aug-27 04:33N 33°37' W 117°55'0 0.1
2015-Aug-27 03:33N 33°37' W 117°55'1 1.2
2015-Aug-27 02:32N 33°37' W 117°54'2 2.1
2015-Aug-27 01:32N 33°35' W 117°52'1 1.0
2015-Aug-27 00:32N 33°36' W 117°53'1 1.1
2015-Aug-26 23:33N 33°37' W 117°54'1 1.0
2015-Aug-26 22:20N 33°37' W 117°55'0 0.0
2015-Aug-26 21:33N 33°37' W 117°55'0 0.0
2015-Aug-26 20:33N 33°37' W 117°55'0 0.0
2015-Aug-26 19:33N 33°37' W 117°55'0 0.0
2015-Aug-26 18:33N 33°37' W 117°55'0 0.0
2015-Aug-26 17:33N 33°37' W 117°55'0 0.0
2015-Aug-26 16:33N 33°37' W 117°55'0 0.0
2015-Aug-26 15:33N 33°37' W 117°55'0 0.0
2015-Aug-26 14:15N 33°37' W 117°55'0 0.0
2015-Aug-26 13:33N 33°37' W 117°55'0 0.0
2015-Aug-26 12:31N 33°37' W 117°55'0 0.0
2015-Aug-26 11:33N 33°37' W 117°55'0 0.0
2015-Aug-26 10:33N 33°37' W 117°55'0 0.0
2015-Aug-26 09:33N 33°37' W 117°55'0 0.0
2015-Aug-26 08:33N 33°37' W 117°55'0 0.0
2015-Aug-26 07:33N 33°37' W 117°55'0 0.0
2015-Aug-26 06:33N 33°37' W 117°55'0 0.0
2015-Aug-26 05:33N 33°37' W 117°55'0 0.0
2015-Aug-26 04:29N 33°37' W 117°55'0 0.0
2015-Aug-26 03:28N 33°37' W 117°55'0 0.0
2015-Aug-26 00:25N 33°37' W 117°55'0 0.0
2015-Aug-25 23:33N 33°37' W 117°55'0 0.0
2015-Aug-25 22:25N 33°37' W 117°55'0 0.0
2015-Aug-25 18:13N 33°37' W 117°55'0 0.0
2015-Aug-25 17:04N 33°37' W 117°55'0 0.0
2015-Aug-25 16:33N 33°37' W 117°55'0 0.0
2015-Aug-25 15:17N 33°37' W 117°55'0 0.0
2015-Aug-25 14:33N 33°37' W 117°55'0 0.0
2015-Aug-25 13:30N 33°37' W 117°55'0 0.0
2015-Aug-25 06:27N 33°37' W 117°55'0 0.0
2015-Aug-25 04:30N 33°37' W 117°55'0 0.0
2015-Aug-25 03:32N 33°37' W 117°55'0 0.0
2015-Aug-25 02:33N 33°37' W 117°55'0 0.0
2015-Aug-25 01:33N 33°37' W 117°55'0 0.0
2015-Aug-23 22:26N 33°37' W 117°55'26 8.6
2015-Aug-23 19:23N 33°23' W 118°22'0 0.1
2015-Aug-23 18:33N 33°23' W 118°22'0 0.0
2015-Aug-23 17:21N 33°23' W 118°22'0 0.0
2015-Aug-23 16:19N 33°23' W 118°22'0 0.0
2015-Aug-23 13:14N 33°23' W 118°22'0 0.0
2015-Aug-23 11:30N 33°23' W 118°22'0 0.0
2015-Aug-23 09:30N 33°23' W 118°22'0 0.0
2015-Aug-23 08:31N 33°23' W 118°22'0 0.0
2015-Aug-23 07:19N 33°23' W 118°22'0 0.0
2015-Aug-23 06:28N 33°23' W 118°22'0 0.0
2015-Aug-23 02:09N 33°23' W 118°22'0 0.0
2015-Aug-22 22:21N 33°23' W 118°22'0 0.0
2015-Aug-22 21:33N 33°23' W 118°22'0 0.0
2015-Aug-22 09:31N 33°23' W 118°22'0 0.0
2015-Aug-22 08:30N 33°23' W 118°22'0 0.0
2015-Aug-22 07:33N 33°23' W 118°22'0 0.0
2015-Aug-22 03:14N 33°23' W 118°22'0 0.0
2015-Aug-22 02:05N 33°23' W 118°22'0 0.0
2015-Aug-22 01:30N 33°23' W 118°22'0 0.0
2015-Aug-22 00:28N 33°23' W 118°22'0 0.0
2015-Aug-21 23:33N 33°23' W 118°22'0 0.0
2015-Aug-21 22:33N 33°23' W 118°22'  
2015-Aug-19 05:33N 33°37' W 117°55'0 0.0
2015-Aug-19 04:33N 33°37' W 117°55'0 0.0
2015-Aug-19 03:33N 33°37' W 117°55'0 0.0
2015-Aug-19 02:33N 33°37' W 117°55'0 0.0
2015-Aug-19 01:32N 33°37' W 117°55'0 0.0
2015-Aug-18 23:26N 33°37' W 117°55'0 0.0
2015-Aug-18 22:33N 33°37' W 117°55'0 0.0
2015-Aug-18 21:20N 33°37' W 117°55'0 0.0
2015-Aug-17 22:30N 33°37' W 117°55'  
Track history (hours):
 
Tides and Currents Weather Stations Pressure Air Temp Water Temp Dewpoint Dewpoint Depression Visibility Wind Speed Wind Dir Waves Ship Positions

Andiamo

Owner: Briggs, Robert O, Newport Beach, CA. More information available from US FCC via Universal Licensing System.

Last reported at 2015-Aug-27 20:33 UTC. Time now 2015-Aug-27 20:42 UTC.
Position N 33°37' W 117°55'.

Length 22 m.

Type: Pleasure craft. MMSI: 367320870.

Date/timePositionNaut miles runAvg speedWind from/ knotsBaromVisibWave heightAir tempDewpointWater temp
2015-Aug-27 20:33N 33°37' W 117°55'0 0.0
2015-Aug-27 19:33N 33°37' W 117°55'0 0.0
2015-Aug-27 16:33N 33°37' W 117°55'0 0.0
2015-Aug-27 15:31N 33°37' W 117°55'0 0.0
2015-Aug-27 14:19N 33°37' W 117°55'0 0.0
2015-Aug-27 13:33N 33°37' W 117°55'0 0.0
2015-Aug-27 12:31N 33°37' W 117°55'0 0.0
2015-Aug-27 11:33N 33°37' W 117°55'0 0.0
2015-Aug-27 10:33N 33°37' W 117°55'0 0.0
2015-Aug-27 09:32N 33°37' W 117°55'0 0.0
2015-Aug-27 08:33N 33°37' W 117°55'0 0.0
2015-Aug-27 07:33N 33°37' W 117°55'0 0.0
2015-Aug-27 06:25N 33°37' W 117°55'0 0.0
2015-Aug-27 05:28N 33°37' W 117°55'0 0.0
2015-Aug-27 04:33N 33°37' W 117°55'0 0.1
2015-Aug-27 03:33N 33°37' W 117°55'1 1.2
2015-Aug-27 02:32N 33°37' W 117°54'2 2.1
2015-Aug-27 01:32N 33°35' W 117°52'1 1.0
2015-Aug-27 00:32N 33°36' W 117°53'1 1.1
2015-Aug-26 23:33N 33°37' W 117°54'1 1.0
2015-Aug-26 22:20N 33°37' W 117°55'0 0.0
2015-Aug-26 21:33N 33°37' W 117°55'0 0.0
2015-Aug-26 20:33N 33°37' W 117°55'0 0.0
2015-Aug-26 19:33N 33°37' W 117°55'0 0.0
2015-Aug-26 18:33N 33°37' W 117°55'0 0.0
2015-Aug-26 17:33N 33°37' W 117°55'0 0.0
2015-Aug-26 16:33N 33°37' W 117°55'0 0.0
2015-Aug-26 15:33N 33°37' W 117°55'0 0.0
2015-Aug-26 14:15N 33°37' W 117°55'0 0.0
2015-Aug-26 13:33N 33°37' W 117°55'0 0.0
2015-Aug-26 12:31N 33°37' W 117°55'0 0.0
2015-Aug-26 11:33N 33°37' W 117°55'0 0.0
2015-Aug-26 10:33N 33°37' W 117°55'0 0.0
2015-Aug-26 09:33N 33°37' W 117°55'0 0.0
2015-Aug-26 08:33N 33°37' W 117°55'0 0.0
2015-Aug-26 07:33N 33°37' W 117°55'0 0.0
2015-Aug-26 06:33N 33°37' W 117°55'0 0.0
2015-Aug-26 05:33N 33°37' W 117°55'0 0.0
2015-Aug-26 04:29N 33°37' W 117°55'0 0.0
2015-Aug-26 03:28N 33°37' W 117°55'0 0.0
2015-Aug-26 00:25N 33°37' W 117°55'0 0.0
2015-Aug-25 23:33N 33°37' W 117°55'0 0.0
2015-Aug-25 22:25N 33°37' W 117°55'0 0.0
2015-Aug-25 18:13N 33°37' W 117°55'0 0.0
2015-Aug-25 17:04N 33°37' W 117°55'0 0.0
2015-Aug-25 16:33N 33°37' W 117°55'0 0.0
2015-Aug-25 15:17N 33°37' W 117°55'0 0.0
2015-Aug-25 14:33N 33°37' W 117°55'0 0.0
2015-Aug-25 13:30N 33°37' W 117°55'0 0.0
2015-Aug-25 06:27N 33°37' W 117°55'0 0.0
2015-Aug-25 04:30N 33°37' W 117°55'0 0.0
2015-Aug-25 03:32N 33°37' W 117°55'0 0.0
2015-Aug-25 02:33N 33°37' W 117°55'0 0.0
2015-Aug-25 01:33N 33°37' W 117°55'0 0.0
2015-Aug-23 22:26N 33°37' W 117°55'26 8.6
2015-Aug-23 19:23N 33°23' W 118°22'0 0.1
2015-Aug-23 18:33N 33°23' W 118°22'0 0.0
2015-Aug-23 17:21N 33°23' W 118°22'0 0.0
2015-Aug-23 16:19N 33°23' W 118°22'0 0.0
2015-Aug-23 13:14N 33°23' W 118°22'0 0.0
2015-Aug-23 11:30N 33°23' W 118°22'0 0.0
2015-Aug-23 09:30N 33°23' W 118°22'0 0.0
2015-Aug-23 08:31N 33°23' W 118°22'0 0.0
2015-Aug-23 07:19N 33°23' W 118°22'0 0.0
2015-Aug-23 06:28N 33°23' W 118°22'0 0.0
2015-Aug-23 02:09N 33°23' W 118°22'0 0.0
2015-Aug-22 22:21N 33°23' W 118°22'0 0.0
2015-Aug-22 21:33N 33°23' W 118°22'0 0.0
2015-Aug-22 09:31N 33°23' W 118°22'0 0.0
2015-Aug-22 08:30N 33°23' W 118°22'0 0.0
2015-Aug-22 07:33N 33°23' W 118°22'0 0.0
2015-Aug-22 03:14N 33°23' W 118°22'0 0.0
2015-Aug-22 02:05N 33°23' W 118°22'0 0.0
2015-Aug-22 01:30N 33°23' W 118°22'0 0.0
2015-Aug-22 00:28N 33°23' W 118°22'0 0.0
2015-Aug-21 23:33N 33°23' W 118°22'0 0.0
2015-Aug-21 22:33N 33°23' W 118°22'  
2015-Aug-19 05:33N 33°37' W 117°55'0 0.0
2015-Aug-19 04:33N 33°37' W 117°55'0 0.0
2015-Aug-19 03:33N 33°37' W 117°55'0 0.0
2015-Aug-19 02:33N 33°37' W 117°55'0 0.0
2015-Aug-19 01:32N 33°37' W 117°55'0 0.0
2015-Aug-18 23:26N 33°37' W 117°55'0 0.0
2015-Aug-18 22:33N 33°37' W 117°55'0 0.0
2015-Aug-18 21:20N 33°37' W 117°55'0 0.0
2015-Aug-17 22:30N 33°37' W 117°55'  

Dump ship's entire track history